createdAt,value
2023-03-15T00:00:12.484Z,57.10
2023-03-15T00:02:44.186Z,56.67
2023-03-15T00:05:15.934Z,56.84
2023-03-15T00:07:47.619Z,56.40
2023-03-15T00:10:21.247Z,56.04
2023-03-15T00:12:52.926Z,56.81
2023-03-15T00:15:24.609Z,56.73
2023-03-15T00:17:56.376Z,56.54
2023-03-15T00:20:28.087Z,56.76
2023-03-15T00:22:59.775Z,56.43
2023-03-15T00:25:31.570Z,56.30
2023-03-15T00:28:03.537Z,56.94
2023-03-15T00:30:37.217Z,56.68
2023-03-15T00:33:13.722Z,57.00
2023-03-15T00:35:45.707Z,57.12
2023-03-15T00:38:17.351Z,56.82
2023-03-15T00:40:49.645Z,56.31
2023-03-15T00:43:21.280Z,56.57
2023-03-15T00:45:53.097Z,56.77
2023-03-15T00:48:24.781Z,56.80
2023-03-15T00:51:08.083Z,56.91
2023-03-15T00:53:42.429Z,56.90
2023-03-15T00:56:20.324Z,56.79
2023-03-15T00:58:55.265Z,57.11
2023-03-15T01:01:29.817Z,56.83
2023-03-15T01:04:01.590Z,56.48
2023-03-15T01:06:33.355Z,56.63
2023-03-15T01:09:05.845Z,56.67
2023-03-15T01:11:37.760Z,56.13
2023-03-15T01:14:10.059Z,56.48
2023-03-15T01:16:42.202Z,56.24
2023-03-15T01:19:15.328Z,56.25
2023-03-15T01:21:47.992Z,56.73
2023-03-15T01:24:22.100Z,56.25
2023-03-15T01:26:55.236Z,56.21
2023-03-15T01:29:27.521Z,56.21
2023-03-15T01:31:59.222Z,55.89
2023-03-15T01:34:30.967Z,55.69
2023-03-15T01:37:05.614Z,56.00
2023-03-15T01:39:43.036Z,56.14
2023-03-15T01:42:14.710Z,55.38
2023-03-15T01:45:00.093Z,55.51
2023-03-15T01:47:32.814Z,55.06
2023-03-15T01:50:11.454Z,55.52
2023-03-15T01:52:43.644Z,55.16
2023-03-15T01:55:22.000Z,55.43
2023-03-15T01:58:24.179Z,54.42
2023-03-15T02:00:56.103Z,54.79
2023-03-15T02:03:35.918Z,54.46
2023-03-15T02:06:10.197Z,53.80
2023-03-15T02:09:04.617Z,53.82
2023-03-15T02:11:40.564Z,53.54
2023-03-15T02:14:14.485Z,53.86
2023-03-15T02:16:49.697Z,53.87
2023-03-15T02:19:57.044Z,53.43
2023-03-15T02:23:07.208Z,53.28
2023-03-15T02:25:49.177Z,53.18
2023-03-15T02:28:20.950Z,53.24
2023-03-15T02:30:52.617Z,53.59
2023-03-15T02:33:26.251Z,53.19
2023-03-15T02:36:10.119Z,53.70
2023-03-15T02:38:42.093Z,53.43
2023-03-15T02:41:17.894Z,53.88
2023-03-15T02:43:53.284Z,53.17
2023-03-15T02:46:25.118Z,53.35
2023-03-15T02:48:57.329Z,53.02
2023-03-15T02:51:33.425Z,52.98
2023-03-15T02:54:06.330Z,53.50
2023-03-15T02:56:38.050Z,53.06
2023-03-15T02:59:09.819Z,53.35
2023-03-15T03:01:42.204Z,53.57
2023-03-15T03:04:14.027Z,53.77
2023-03-15T03:06:46.197Z,53.52
2023-03-15T03:09:22.578Z,53.68
2023-03-15T03:11:54.358Z,53.48
2023-03-15T03:14:26.086Z,53.60
2023-03-15T03:16:58.021Z,53.58
2023-03-15T03:19:29.833Z,53.83
2023-03-15T03:22:01.538Z,54.11
2023-03-15T03:24:33.812Z,54.10
2023-03-15T03:27:08.979Z,53.95
2023-03-15T03:29:43.091Z,54.82
2023-03-15T03:32:15.869Z,55.09
2023-03-15T03:34:50.908Z,55.13
2023-03-15T03:37:26.628Z,54.96
2023-03-15T03:40:09.156Z,55.36
2023-03-15T03:42:41.633Z,55.48
2023-03-15T03:45:13.523Z,55.87
2023-03-15T03:47:48.555Z,56.51
2023-03-15T03:50:21.102Z,56.02
2023-03-15T03:52:53.882Z,56.20
2023-03-15T03:55:30.148Z,56.27
2023-03-15T03:58:01.940Z,56.14
2023-03-15T04:00:59.815Z,55.81
2023-03-15T04:03:36.925Z,55.64
2023-03-15T04:06:19.130Z,55.69
2023-03-15T04:08:52.689Z,56.28
2023-03-15T04:11:39.034Z,56.57
2023-03-15T04:14:14.399Z,56.95
2023-03-15T04:16:48.765Z,56.94
2023-03-15T04:19:23.211Z,56.81
2023-03-15T04:21:55.852Z,57.28
2023-03-15T04:24:45.519Z,56.86
2023-03-15T04:27:40.379Z,56.70
2023-03-15T04:30:32.014Z,55.83
2023-03-15T04:33:32.614Z,56.20
2023-03-15T04:36:23.802Z,55.73
2023-03-15T04:39:15.774Z,54.84
2023-03-15T04:41:51.079Z,54.53
2023-03-15T04:44:34.797Z,54.82
2023-03-15T04:47:32.836Z,55.11
2023-03-15T04:50:34.220Z,55.05
2023-03-15T04:53:29.107Z,54.71
2023-03-15T04:56:19.147Z,55.08
2023-03-15T04:59:04.299Z,54.57
2023-03-15T05:01:58.887Z,55.29
2023-03-15T05:04:39.496Z,55.12
2023-03-15T05:07:29.791Z,55.17
2023-03-15T05:10:33.677Z,54.93
2023-03-15T05:13:29.680Z,55.10
2023-03-15T05:16:18.525Z,55.65
2023-03-15T05:19:00.121Z,55.81
2023-03-15T05:22:03.830Z,55.94
2023-03-15T05:24:54.362Z,55.89
2023-03-15T05:27:46.643Z,55.75
2023-03-15T05:30:36.960Z,55.70
2023-03-15T05:33:31.619Z,56.46
2023-03-15T05:36:17.448Z,56.58
2023-03-15T05:39:04.409Z,56.36
2023-03-15T05:42:06.667Z,56.98
2023-03-15T05:45:04.266Z,56.73
2023-03-15T05:47:47.710Z,57.32
2023-03-15T05:50:37.780Z,57.34
2023-03-15T05:53:42.444Z,57.15
2023-03-15T05:56:30.288Z,56.86
2023-03-15T05:59:20.557Z,57.08
2023-03-15T06:02:10.550Z,57.22
2023-03-15T06:04:50.918Z,56.89
2023-03-15T06:07:26.792Z,57.27
2023-03-15T06:09:58.547Z,56.92
2023-03-15T06:12:31.354Z,54.54
2023-03-15T06:15:03.176Z,50.08
2023-03-15T06:17:34.964Z,47.72
2023-03-15T06:20:07.175Z,43.43
2023-03-15T06:22:39.306Z,40.61
2023-03-15T06:25:20.683Z,37.34
2023-03-15T06:27:52.464Z,34.92
2023-03-15T06:30:26.084Z,33.33
2023-03-15T06:33:01.419Z,31.66
2023-03-15T06:35:37.064Z,31.51
2023-03-15T06:38:11.854Z,31.80
2023-03-15T06:40:43.979Z,31.10
2023-03-15T06:43:19.558Z,31.24
2023-03-15T06:45:53.614Z,32.35
2023-03-15T06:48:26.408Z,32.12
2023-03-15T06:50:58.361Z,31.97
2023-03-15T06:53:30.507Z,31.18
2023-03-15T06:56:02.227Z,30.50
2023-03-15T06:58:34.074Z,30.29
2023-03-15T07:01:06.126Z,29.11
2023-03-15T07:03:37.880Z,29.57
2023-03-15T07:06:10.063Z,29.07
2023-03-15T07:08:41.841Z,29.08
2023-03-15T07:11:14.040Z,29.13
2023-03-15T07:13:45.869Z,29.09
2023-03-15T07:16:17.631Z,29.26
2023-03-15T07:18:50.379Z,29.00
2023-03-15T07:21:22.276Z,29.65
2023-03-15T07:23:54.328Z,29.99
2023-03-15T07:26:26.054Z,29.36
2023-03-15T07:29:01.809Z,29.68
2023-03-15T07:31:33.599Z,29.88
2023-03-15T07:34:05.325Z,29.46
2023-03-15T07:36:37.060Z,29.88
2023-03-15T07:39:09.101Z,28.79
2023-03-15T07:41:40.858Z,28.94
2023-03-15T07:44:20.489Z,29.54
2023-03-15T07:46:52.620Z,29.75
2023-03-15T07:49:25.000Z,29.62
2023-03-15T07:51:56.752Z,30.07
2023-03-15T07:54:31.784Z,30.60
2023-03-15T07:57:03.847Z,30.77
2023-03-15T07:59:35.891Z,30.42
2023-03-15T08:02:10.025Z,29.53
2023-03-15T08:04:41.944Z,28.91
2023-03-15T08:07:15.671Z,28.71
2023-03-15T08:09:48.378Z,28.17
2023-03-15T08:12:20.177Z,27.53
2023-03-15T08:14:53.039Z,27.50
2023-03-15T08:17:26.725Z,27.42
2023-03-15T08:19:58.381Z,28.69
2023-03-15T08:22:30.362Z,27.58
2023-03-15T08:25:02.108Z,29.24
2023-03-15T08:27:33.854Z,28.67
2023-03-15T08:30:06.132Z,27.77
2023-03-15T08:32:38.881Z,28.13
2023-03-15T08:35:15.133Z,27.58
2023-03-15T08:37:48.016Z,27.62
2023-03-15T08:40:24.108Z,27.60
2023-03-15T08:42:56.723Z,26.46
2023-03-15T08:45:28.448Z,27.17
2023-03-15T08:48:01.145Z,26.23
2023-03-15T08:50:32.947Z,26.41
2023-03-15T08:53:04.664Z,26.93
2023-03-15T08:55:36.932Z,26.24
2023-03-15T08:58:08.963Z,25.30
2023-03-15T09:00:40.638Z,25.42
2023-03-15T09:03:12.437Z,25.12
2023-03-15T09:05:44.497Z,23.12
2023-03-15T09:08:21.059Z,23.58
2023-03-15T09:10:56.925Z,23.61
2023-03-15T09:13:29.140Z,23.83
2023-03-15T09:16:00.815Z,23.82
2023-03-15T09:18:34.032Z,22.88
2023-03-15T09:21:05.771Z,23.16
2023-03-15T09:23:37.525Z,23.16
2023-03-15T09:26:09.232Z,24.64
2023-03-15T09:28:40.959Z,22.76
2023-03-15T09:31:12.659Z,22.79
2023-03-15T09:33:46.432Z,23.37
2023-03-15T09:36:18.174Z,23.34
2023-03-15T09:38:50.007Z,23.49
2023-03-15T09:41:46.300Z,22.36
2023-03-15T09:44:29.108Z,23.12
2023-03-15T09:47:00.741Z,23.80
2023-03-15T09:49:52.176Z,23.64
2023-03-15T09:52:51.468Z,23.65
2023-03-15T09:55:28.276Z,23.63
2023-03-15T09:58:16.187Z,22.44
2023-03-15T10:00:59.290Z,22.43
2023-03-15T10:03:43.110Z,21.73
2023-03-15T10:06:24.393Z,23.56
2023-03-15T10:09:01.869Z,21.29
2023-03-15T10:12:07.500Z,21.06
2023-03-15T10:14:39.341Z,22.87
2023-03-15T10:17:21.084Z,24.44
2023-03-15T10:19:59.088Z,24.25
2023-03-15T10:22:45.886Z,23.34
2023-03-15T10:25:29.970Z,23.69
2023-03-15T10:28:12.266Z,23.87
2023-03-15T10:30:48.388Z,24.57
2023-03-15T10:33:37.829Z,25.92
2023-03-15T10:36:22.380Z,26.34
2023-03-15T10:38:54.065Z,27.18
2023-03-15T10:41:29.968Z,27.33
2023-03-15T10:44:05.291Z,27.79
2023-03-15T10:46:37.812Z,29.00
2023-03-15T10:49:19.980Z,28.81
2023-03-15T10:51:51.647Z,28.50
2023-03-15T10:54:25.031Z,29.23
2023-03-15T10:57:04.244Z,29.91
2023-03-15T10:59:36.327Z,30.39
2023-03-15T11:02:25.576Z,30.34
2023-03-15T11:05:04.464Z,29.62
2023-03-15T11:07:36.716Z,29.55
2023-03-15T11:10:21.348Z,29.46
2023-03-15T11:13:14.583Z,29.67
2023-03-15T11:16:15.323Z,28.94
2023-03-15T11:19:01.480Z,30.57
2023-03-15T11:21:36.791Z,31.63
2023-03-15T11:24:22.549Z,32.32
2023-03-15T11:27:03.721Z,32.39
2023-03-15T11:29:37.220Z,32.73
2023-03-15T11:32:21.346Z,33.16
2023-03-15T11:34:52.912Z,33.45
2023-03-15T11:37:49.853Z,33.83
2023-03-15T11:40:24.943Z,34.08
2023-03-15T11:43:08.822Z,34.31
2023-03-15T11:46:00.598Z,34.91
2023-03-15T11:48:48.802Z,35.84
2023-03-15T11:51:20.729Z,36.13
2023-03-15T11:54:05.632Z,35.09
2023-03-15T11:56:43.276Z,36.04
2023-03-15T11:59:20.551Z,36.09
2023-03-15T12:02:13.298Z,36.52
2023-03-15T12:04:47.015Z,36.27
2023-03-15T12:07:24.520Z,36.21
2023-03-15T12:10:05.190Z,35.88
2023-03-15T12:12:37.860Z,36.12
2023-03-15T12:15:18.823Z,37.39
2023-03-15T12:17:51.705Z,37.60
2023-03-15T12:20:42.842Z,38.08
2023-03-15T12:23:17.483Z,39.12
2023-03-15T12:25:55.618Z,38.68
2023-03-15T12:28:34.143Z,39.21
2023-03-15T12:31:13.067Z,39.39
2023-03-15T12:33:58.719Z,39.56
2023-03-15T12:36:35.215Z,40.75
2023-03-15T12:39:09.547Z,43.00
2023-03-15T12:41:50.044Z,44.95
2023-03-15T12:44:33.890Z,46.21
2023-03-15T12:47:07.146Z,47.18
2023-03-15T12:49:44.122Z,48.34
2023-03-15T12:52:18.598Z,49.20
2023-03-15T12:54:54.712Z,49.79
2023-03-15T12:57:35.851Z,50.31
2023-03-15T13:00:21.455Z,50.19
2023-03-15T13:03:04.485Z,50.13
2023-03-15T13:06:08.671Z,50.82
2023-03-15T13:09:04.911Z,50.99
2023-03-15T13:12:15.220Z,51.81
2023-03-15T13:14:58.508Z,52.10
2023-03-15T13:17:49.510Z,50.66
2023-03-15T13:20:42.576Z,49.38
2023-03-15T13:23:18.703Z,49.50
2023-03-15T13:26:20.731Z,48.14
2023-03-15T13:29:20.076Z,48.05
2023-03-15T13:32:22.951Z,47.26
2023-03-15T13:34:57.252Z,47.30
2023-03-15T13:37:32.028Z,47.27
2023-03-15T13:40:11.896Z,48.08
2023-03-15T13:42:43.711Z,48.25
2023-03-15T13:45:16.963Z,48.67
2023-03-15T13:47:48.923Z,49.44
2023-03-15T13:50:21.794Z,50.70
2023-03-15T13:52:55.525Z,53.75
2023-03-15T13:55:32.673Z,56.24
2023-03-15T13:58:09.287Z,58.26
2023-03-15T14:00:41.506Z,60.42
2023-03-15T14:03:17.447Z,62.88
2023-03-15T14:05:52.580Z,63.03
2023-03-15T14:08:31.525Z,64.48
2023-03-15T14:11:40.614Z,64.34
2023-03-15T14:14:32.407Z,65.62
2023-03-15T14:17:17.962Z,66.47
2023-03-15T14:20:08.727Z,67.88
2023-03-15T14:22:42.013Z,67.20
2023-03-15T14:25:22.234Z,67.60
2023-03-15T14:27:54.216Z,67.86
2023-03-15T14:30:26.182Z,68.79
2023-03-15T14:33:04.752Z,68.71
2023-03-15T14:35:36.560Z,69.75
2023-03-15T14:38:17.966Z,70.35
2023-03-15T14:40:51.837Z,69.60
2023-03-15T14:43:23.900Z,69.52
2023-03-15T14:45:55.723Z,70.83
2023-03-15T14:48:30.085Z,70.53
2023-03-15T14:51:02.103Z,71.16
2023-03-15T14:53:37.592Z,71.74
2023-03-15T14:56:13.579Z,71.77
2023-03-15T14:58:45.236Z,72.08
2023-03-15T15:01:22.640Z,71.60
2023-03-15T15:03:59.739Z,70.96
2023-03-15T15:06:32.016Z,70.03
2023-03-15T15:09:05.889Z,69.37
2023-03-15T15:11:37.771Z,69.93
2023-03-15T15:14:15.576Z,69.43
2023-03-15T15:16:47.616Z,69.91
2023-03-15T15:19:19.579Z,69.87
2023-03-15T15:21:51.734Z,69.95
2023-03-15T15:24:26.550Z,70.05
2023-03-15T15:26:58.085Z,70.04
2023-03-15T15:29:29.716Z,69.29
2023-03-15T15:32:01.494Z,69.93
2023-03-15T15:34:34.060Z,68.85
2023-03-15T15:37:06.073Z,68.07
2023-03-15T15:39:38.260Z,68.75
2023-03-15T15:42:11.025Z,69.00
2023-03-15T15:44:42.760Z,68.86
2023-03-15T15:47:14.477Z,69.17
2023-03-15T15:49:46.173Z,68.94
2023-03-15T15:52:17.880Z,69.17
2023-03-15T15:54:49.578Z,69.53
2023-03-15T15:57:26.552Z,69.64
2023-03-15T15:59:58.333Z,69.64
2023-03-15T16:02:30.052Z,68.84
2023-03-15T16:05:01.802Z,68.99
2023-03-15T16:07:33.597Z,68.99
2023-03-15T16:10:06.565Z,68.61
2023-03-15T16:12:38.316Z,68.21
2023-03-15T16:15:14.437Z,68.65
2023-03-15T16:17:46.743Z,68.89
2023-03-15T16:20:19.694Z,68.50
2023-03-15T16:22:57.713Z,68.72
2023-03-15T16:25:33.831Z,68.51
2023-03-15T16:28:07.852Z,68.89
2023-03-15T16:30:40.774Z,69.38
2023-03-15T16:33:16.453Z,69.82
2023-03-15T16:35:50.266Z,69.97
2023-03-15T16:38:26.402Z,70.28
2023-03-15T16:40:59.813Z,70.60
2023-03-15T16:43:31.550Z,69.94
2023-03-15T16:46:13.707Z,70.86
2023-03-15T16:48:45.618Z,71.61
2023-03-15T16:51:17.470Z,71.94
2023-03-15T16:53:49.206Z,73.06
2023-03-15T16:56:21.004Z,73.99
2023-03-15T16:58:54.078Z,74.25
2023-03-15T17:01:25.903Z,73.79
2023-03-15T17:03:58.184Z,73.28
2023-03-15T17:06:31.414Z,73.63
2023-03-15T17:09:09.297Z,74.75
2023-03-15T17:11:43.435Z,74.25
2023-03-15T17:14:19.571Z,74.02
2023-03-15T17:16:51.238Z,74.35
2023-03-15T17:19:23.292Z,75.13
2023-03-15T17:21:55.008Z,74.20
2023-03-15T17:24:26.745Z,74.56
2023-03-15T17:26:58.777Z,74.24
2023-03-15T17:29:30.755Z,73.95
2023-03-15T17:32:02.514Z,73.27
2023-03-15T17:34:34.230Z,73.08
2023-03-15T17:37:05.902Z,72.80
2023-03-15T17:39:38.191Z,72.31
2023-03-15T17:42:13.498Z,72.69
2023-03-15T17:44:45.250Z,72.16
2023-03-15T17:47:16.956Z,71.95
2023-03-15T17:49:48.763Z,72.83
2023-03-15T17:52:21.039Z,72.25
2023-03-15T17:54:52.683Z,72.20
2023-03-15T17:57:24.628Z,72.76
2023-03-15T17:59:56.339Z,72.99
2023-03-15T18:02:28.326Z,72.80
2023-03-15T18:05:00.517Z,73.03
2023-03-15T18:07:32.334Z,73.97
2023-03-15T18:10:04.360Z,73.29
2023-03-15T18:12:36.110Z,74.73
2023-03-15T18:15:11.078Z,74.59
2023-03-15T18:17:42.874Z,74.35
2023-03-15T18:20:15.557Z,74.04
2023-03-15T18:22:48.036Z,74.76
2023-03-15T18:25:22.808Z,74.46
2023-03-15T18:27:54.445Z,74.58
2023-03-15T18:30:28.618Z,73.92
2023-03-15T18:33:00.798Z,73.69
2023-03-15T18:35:34.801Z,74.97
2023-03-15T18:38:06.584Z,75.01
2023-03-15T18:40:38.280Z,74.57
2023-03-15T18:43:14.580Z,74.29
2023-03-15T18:45:46.380Z,74.27
2023-03-15T18:48:19.578Z,74.09
2023-03-15T18:50:52.800Z,74.30
2023-03-15T18:53:24.425Z,73.98
2023-03-15T18:55:56.112Z,74.08
2023-03-15T18:58:27.777Z,74.20
2023-03-15T19:00:59.838Z,74.85
2023-03-15T19:03:31.529Z,74.86
2023-03-15T19:06:05.970Z,74.67
2023-03-15T19:08:37.878Z,74.50
2023-03-15T19:11:11.328Z,74.35
2023-03-15T19:13:43.505Z,74.36
2023-03-15T19:16:16.749Z,73.31
2023-03-15T19:18:49.615Z,73.90
2023-03-15T19:21:21.486Z,73.85
2023-03-15T19:23:53.289Z,73.94
2023-03-15T19:26:25.136Z,74.10
2023-03-15T19:28:56.902Z,74.16
2023-03-15T19:31:29.323Z,74.01
2023-03-15T19:34:01.512Z,74.18
2023-03-15T19:36:33.195Z,73.99
2023-03-15T19:39:07.140Z,73.96
2023-03-15T19:41:39.195Z,74.43
2023-03-15T19:44:11.313Z,74.57
2023-03-15T19:46:43.117Z,74.37
2023-03-15T19:49:14.864Z,74.22
2023-03-15T19:51:46.619Z,73.81
2023-03-15T19:54:18.628Z,74.27
2023-03-15T19:56:50.818Z,74.10
2023-03-15T19:59:25.204Z,76.67
2023-03-15T20:01:57.063Z,74.60
2023-03-15T20:04:28.870Z,74.34
2023-03-15T20:07:03.585Z,74.34
2023-03-15T20:09:38.888Z,73.80
2023-03-15T20:12:12.733Z,74.25
2023-03-15T20:14:44.515Z,73.90
2023-03-15T20:17:16.371Z,73.62
2023-03-15T20:19:48.073Z,73.68
2023-03-15T20:22:19.958Z,74.22
2023-03-15T20:24:51.760Z,73.98
2023-03-15T20:27:23.456Z,74.56
2023-03-15T20:29:56.626Z,74.56
2023-03-15T20:32:28.686Z,74.50
2023-03-15T20:35:02.333Z,74.24
2023-03-15T20:37:34.917Z,74.52
2023-03-15T20:40:09.108Z,74.39
2023-03-15T20:42:41.844Z,74.33
2023-03-15T20:45:14.053Z,75.01
2023-03-15T20:47:45.931Z,74.38
2023-03-15T20:50:17.640Z,74.40
2023-03-15T20:52:49.342Z,74.96
2023-03-15T20:55:21.204Z,74.82
2023-03-15T20:57:53.503Z,74.91
2023-03-15T21:00:27.190Z,75.29
2023-03-15T21:02:58.951Z,75.25
2023-03-15T21:05:32.370Z,75.20
2023-03-15T21:08:04.382Z,74.76
2023-03-15T21:10:37.398Z,74.61
2023-03-15T21:13:10.336Z,75.14
2023-03-15T21:15:46.459Z,74.89
2023-03-15T21:18:18.360Z,74.50
2023-03-15T21:21:05.266Z,74.61
2023-03-15T21:23:37.060Z,74.92
2023-03-15T21:26:11.031Z,75.09
2023-03-15T21:28:43.139Z,74.46
2023-03-15T21:31:15.507Z,74.95
2023-03-15T21:33:49.220Z,75.17
2023-03-15T21:36:22.486Z,74.78
2023-03-15T21:38:54.193Z,75.14
2023-03-15T21:41:25.940Z,74.94
2023-03-15T21:43:57.663Z,74.70
2023-03-15T21:46:29.477Z,74.87
2023-03-15T21:49:01.800Z,74.90
2023-03-15T21:51:34.200Z,75.40
2023-03-15T21:54:05.893Z,74.96
2023-03-15T21:56:37.594Z,75.31
2023-03-15T21:59:09.516Z,75.09
2023-03-15T22:01:41.813Z,74.67
2023-03-15T22:04:13.528Z,74.84
2023-03-15T22:06:45.236Z,74.90
2023-03-15T22:09:16.891Z,74.81
2023-03-15T22:11:48.928Z,75.17
2023-03-15T22:14:21.797Z,74.43
2023-03-15T22:16:53.606Z,74.92
2023-03-15T22:19:25.387Z,74.64
2023-03-15T22:21:57.743Z,74.83
2023-03-15T22:24:29.437Z,74.46
2023-03-15T22:27:01.312Z,74.83
2023-03-15T22:29:33.466Z,74.60
2023-03-15T22:32:06.217Z,74.84
2023-03-15T22:34:37.918Z,74.63
2023-03-15T22:37:09.688Z,74.59
2023-03-15T22:39:42.936Z,74.69
2023-03-15T22:42:14.635Z,75.00
2023-03-15T22:44:46.271Z,75.13
2023-03-15T22:47:18.052Z,75.03
2023-03-15T22:49:49.714Z,75.11
2023-03-15T22:52:22.964Z,74.65
2023-03-15T22:54:54.639Z,74.62
2023-03-15T22:57:26.335Z,75.38
2023-03-15T22:59:58.688Z,74.87
2023-03-15T23:02:33.015Z,75.30
2023-03-15T23:05:05.903Z,74.94
2023-03-15T23:07:38.056Z,75.29
2023-03-15T23:10:11.366Z,75.16
2023-03-15T23:12:43.194Z,74.70
2023-03-15T23:15:14.983Z,74.92
2023-03-15T23:17:46.945Z,75.00
2023-03-15T23:20:19.818Z,74.96
2023-03-15T23:22:51.865Z,74.93
2023-03-15T23:25:25.032Z,74.78
2023-03-15T23:27:57.385Z,75.09
2023-03-15T23:30:35.136Z,74.63
2023-03-15T23:33:08.543Z,74.69
2023-03-15T23:35:41.942Z,74.61
2023-03-15T23:38:13.685Z,74.68
2023-03-15T23:40:45.334Z,74.77
2023-03-15T23:43:17.072Z,74.81
2023-03-15T23:45:48.777Z,75.00
2023-03-15T23:48:20.473Z,74.85
2023-03-15T23:50:56.937Z,75.25
2023-03-15T23:53:29.076Z,74.99
2023-03-15T23:56:01.451Z,74.85
2023-03-15T23:58:33.201Z,74.60
